Wheatland, Indiana
Current Conditions -  °F | °C
As of 2:15 PM on Sunday 23 Nov 2014 (Local Time) from KDCY Reporting Station
Moderate Rain Moderate Rain  
Wind Chill: 53°   Ceiling: 800
Heat Index: 53°   Visibility: 7mi
Dew Point: 53°   Wind: 9mph
Humidity: 100%   Direction: 130°SE
Pressure: 29.51"   Gusts: NA
Location:  38.66°N, 87.31°W
Report Text: KDCY 232015Z AUTO 13008KT 7SM RA OVC008 12/12 A2951 RMK AO2 P0001 T01180118
Loading
Personal Weather Stations






























Interactive Weather Map New forecast layout! Learn more

10-Day Weather Forecast

Advertisements
Track Severe Weather on mobile